Huvudsida
METAR-TAF:

METAR-TAF

Flygplatser :

Minangkabau International Airport

Padang, Indonesien

latitud: 00-47-12S, longitud: 100-16-50E, höjd: 5 m

METAR: saknas

Tid: 20:38 (13:38 UTC)

Väderprognos

Denna rapport gjordes för 2 timmar och 38 minuter sedan, klockan 11:00 UTC
Prognos gäller från 27 kl. 12 UTC till 28 kl. 12 UTC
Vind 6 kt från sydost
Sikt: 9000 m
Spridda moln på en höjd av 2000 ft
Blir
från 27 kl. 19 UTC till 27 kl. 21 UTC
Vind 5 kt varierande vindriktning
Brutna moln på en höjd av 1900 ft
Blir
från 27 kl. 22 UTC till 28 kl. 00 UTC
Vind 3 kt från nord/nordost
Sikt 10 km eller mer

TAF: WIEE 271100Z 2712/2812 14006KT 9000 SCT020 BECMG 2719/2721 VRB05KT BKN019 BECMG 2722/2800 02003KT 9999 SCT

Aktuella väderrapporter och prognoser från 4000 flygplatser (METAR- och TAF-rapporter).

De tillgängliga stationerna syns som gula och röda prickar på kartan.

För musen över prickarna för att se namnen på stationerna.

Klicka sedan för att få väderrapporter och prognoser.

För att ändra kartan: Klicka på de gröna knapparna med ett svart kors på för att zooma in; den gröna knappen med ett streck på för att zooma ut; eller på de gröna pilarna för angränsande kartor.


METAR-TAF: